Kenshinmaru — JD3110 — position and weather

sailwx.info

Track history (hours):
 
Tides and Currents Weather Stations Pressure Air Temp Water Temp Dewpoint Dewpoint Depression Visibility Wind Speed Wind Dir Waves Ship Positions

Kenshinmaru

Last reported at 2017-Nov-11 23:10 UTC. Time now 2017-Nov-22 09:26 UTC.
Position N 34°36' E 135°04'.
Warning: this ship's position is 10 days out of date.

Length 61 m.

Type: Cargo ship. MMSI: 431001809.

Date/timePositionNaut miles runAvg speedWind from/ knotsBaromVisibWave heightAir tempDewpointWater temp
2017-Nov-11 23:10N 34°36' E 135°04'2 9.5
2017-Nov-11 22:56N 34°36' E 135°06'410.3
2017-Nov-11 22:30N 34°37' E 135°12'4 8.2
2017-Nov-11 22:00N 34°40' E 135°15'3 4.3
2017-Nov-11 21:25N 34°42' E 135°13'0 0.0
2017-Nov-11 20:55N 34°42' E 135°13'0 0.0
2017-Nov-11 20:25N 34°42' E 135°13'0 0.0
2017-Nov-11 19:43N 34°42' E 135°13'0 0.0
2017-Nov-11 19:25N 34°42' E 135°13'0 0.0
2017-Nov-11 18:55N 34°42' E 135°13'0 0.0
2017-Nov-11 18:25N 34°42' E 135°13'0 0.0
2017-Nov-11 17:49N 34°42' E 135°13'0 0.0
2017-Nov-11 17:25N 34°42' E 135°13'0 0.0
2017-Nov-11 16:55N 34°42' E 135°13'0 0.0
2017-Nov-11 16:25N 34°42' E 135°13'0 0.0
2017-Nov-11 15:55N 34°42' E 135°13'0 0.0
2017-Nov-11 15:25N 34°42' E 135°13'0 0.0
2017-Nov-11 14:55N 34°42' E 135°13'0 0.0
2017-Nov-11 14:25N 34°42' E 135°13'0 0.0
2017-Nov-11 13:55N 34°42' E 135°13'0 0.0
2017-Nov-11 13:25N 34°42' E 135°13'0 0.0
2017-Nov-11 12:55N 34°42' E 135°13'0 0.0
2017-Nov-11 12:25N 34°42' E 135°13'0 0.0
2017-Nov-11 11:55N 34°42' E 135°13'0 0.0
2017-Nov-11 11:25N 34°42' E 135°13'0 0.0
2017-Nov-11 10:55N 34°42' E 135°13'0 0.0
2017-Nov-11 10:25N 34°42' E 135°13'0 0.0
2017-Nov-11 09:55N 34°42' E 135°13'0 0.0
2017-Nov-11 09:25N 34°42' E 135°13'0 0.0
2017-Nov-11 08:55N 34°42' E 135°13'0 0.0
2017-Nov-11 08:25N 34°42' E 135°13'0 0.0
2017-Nov-11 07:55N 34°42' E 135°13'0 0.0
2017-Nov-11 07:25N 34°42' E 135°13'0 0.0
2017-Nov-11 06:49N 34°42' E 135°13'0 1.0
2017-Nov-11 06:28N 34°41' E 135°13'2 3.9
2017-Nov-11 05:53N 34°42' E 135°16'0 0.0
2017-Nov-11 05:17N 34°42' E 135°16'0 0.2
2017-Nov-11 04:59N 34°42' E 135°16'0 0.1
2017-Nov-11 04:29N 34°42' E 135°16'0 0.0
2017-Nov-11 03:59N 34°42' E 135°16'0 0.0
2017-Nov-11 03:27N 34°42' E 135°16'0 0.3
2017-Nov-11 02:55N 34°42' E 135°16'1 2.6
2017-Nov-11 02:30N 34°41' E 135°15'3 4.7
2017-Nov-11 01:55N 34°39' E 135°15'0 0.0
2017-Nov-11 01:25N 34°39' E 135°15'0 0.0
2017-Nov-11 00:49N 34°39' E 135°15'0 0.0
2017-Nov-11 00:25N 34°39' E 135°15'0 0.0
2017-Nov-10 23:55N 34°39' E 135°15'0 0.0
2017-Nov-10 23:25N 34°39' E 135°15'0 0.0
2017-Nov-10 22:55N 34°39' E 135°15'0 0.0
2017-Nov-10 22:07N 34°39' E 135°15'0 0.0
2017-Nov-10 21:01N 34°39' E 135°15'0 0.1
2017-Nov-10 20:55N 34°39' E 135°15'0 0.0
2017-Nov-10 20:25N 34°39' E 135°15'0 0.0
2017-Nov-10 19:49N 34°39' E 135°15'0 0.0
2017-Nov-10 19:25N 34°39' E 135°15'0 0.0
2017-Nov-10 18:55N 34°39' E 135°15'0 0.0
2017-Nov-10 18:25N 34°39' E 135°15'0 0.0
2017-Nov-10 17:55N 34°39' E 135°15'0 0.0
2017-Nov-10 17:13N 34°39' E 135°15'0 0.1
2017-Nov-10 16:49N 34°39' E 135°15'0 0.0
2017-Nov-10 16:07N 34°39' E 135°15'0 0.0
2017-Nov-10 15:55N 34°39' E 135°15'0 0.0
2017-Nov-10 15:25N 34°39' E 135°15'0 0.1
2017-Nov-10 14:55N 34°39' E 135°15'0 0.1
2017-Nov-10 14:13N 34°39' E 135°15'0 0.1
2017-Nov-10 13:49N 34°39' E 135°15'0 0.1
2017-Nov-10 13:13N 34°39' E 135°15'0 0.0
2017-Nov-10 12:58N 34°39' E 135°15'0 0.8
2017-Nov-10 12:30N 34°38' E 135°16'510.2
2017-Nov-10 12:00N 34°36' E 135°10'  
Track history (hours):
 
Tides and Currents Weather Stations Pressure Air Temp Water Temp Dewpoint Dewpoint Depression Visibility Wind Speed Wind Dir Waves Ship Positions

Kenshinmaru

Last reported at 2017-Nov-11 23:10 UTC. Time now 2017-Nov-22 09:26 UTC.
Position N 34°36' E 135°04'.
Warning: this ship's position is 10 days out of date.

Length 61 m.

Type: Cargo ship. MMSI: 431001809.

Date/timePositionNaut miles runAvg speedWind from/ knotsBaromVisibWave heightAir tempDewpointWater temp
2017-Nov-11 23:10N 34°36' E 135°04'2 9.5
2017-Nov-11 22:56N 34°36' E 135°06'410.3
2017-Nov-11 22:30N 34°37' E 135°12'4 8.2
2017-Nov-11 22:00N 34°40' E 135°15'3 4.3
2017-Nov-11 21:25N 34°42' E 135°13'0 0.0
2017-Nov-11 20:55N 34°42' E 135°13'0 0.0
2017-Nov-11 20:25N 34°42' E 135°13'0 0.0
2017-Nov-11 19:43N 34°42' E 135°13'0 0.0
2017-Nov-11 19:25N 34°42' E 135°13'0 0.0
2017-Nov-11 18:55N 34°42' E 135°13'0 0.0
2017-Nov-11 18:25N 34°42' E 135°13'0 0.0
2017-Nov-11 17:49N 34°42' E 135°13'0 0.0
2017-Nov-11 17:25N 34°42' E 135°13'0 0.0
2017-Nov-11 16:55N 34°42' E 135°13'0 0.0
2017-Nov-11 16:25N 34°42' E 135°13'0 0.0
2017-Nov-11 15:55N 34°42' E 135°13'0 0.0
2017-Nov-11 15:25N 34°42' E 135°13'0 0.0
2017-Nov-11 14:55N 34°42' E 135°13'0 0.0
2017-Nov-11 14:25N 34°42' E 135°13'0 0.0
2017-Nov-11 13:55N 34°42' E 135°13'0 0.0
2017-Nov-11 13:25N 34°42' E 135°13'0 0.0
2017-Nov-11 12:55N 34°42' E 135°13'0 0.0
2017-Nov-11 12:25N 34°42' E 135°13'0 0.0
2017-Nov-11 11:55N 34°42' E 135°13'0 0.0
2017-Nov-11 11:25N 34°42' E 135°13'0 0.0
2017-Nov-11 10:55N 34°42' E 135°13'0 0.0
2017-Nov-11 10:25N 34°42' E 135°13'0 0.0
2017-Nov-11 09:55N 34°42' E 135°13'0 0.0
2017-Nov-11 09:25N 34°42' E 135°13'0 0.0
2017-Nov-11 08:55N 34°42' E 135°13'0 0.0
2017-Nov-11 08:25N 34°42' E 135°13'0 0.0
2017-Nov-11 07:55N 34°42' E 135°13'0 0.0
2017-Nov-11 07:25N 34°42' E 135°13'0 0.0
2017-Nov-11 06:49N 34°42' E 135°13'0 1.0
2017-Nov-11 06:28N 34°41' E 135°13'2 3.9
2017-Nov-11 05:53N 34°42' E 135°16'0 0.0
2017-Nov-11 05:17N 34°42' E 135°16'0 0.2
2017-Nov-11 04:59N 34°42' E 135°16'0 0.1
2017-Nov-11 04:29N 34°42' E 135°16'0 0.0
2017-Nov-11 03:59N 34°42' E 135°16'0 0.0
2017-Nov-11 03:27N 34°42' E 135°16'0 0.3
2017-Nov-11 02:55N 34°42' E 135°16'1 2.6
2017-Nov-11 02:30N 34°41' E 135°15'3 4.7
2017-Nov-11 01:55N 34°39' E 135°15'0 0.0
2017-Nov-11 01:25N 34°39' E 135°15'0 0.0
2017-Nov-11 00:49N 34°39' E 135°15'0 0.0
2017-Nov-11 00:25N 34°39' E 135°15'0 0.0
2017-Nov-10 23:55N 34°39' E 135°15'0 0.0
2017-Nov-10 23:25N 34°39' E 135°15'0 0.0
2017-Nov-10 22:55N 34°39' E 135°15'0 0.0
2017-Nov-10 22:07N 34°39' E 135°15'0 0.0
2017-Nov-10 21:01N 34°39' E 135°15'0 0.1
2017-Nov-10 20:55N 34°39' E 135°15'0 0.0
2017-Nov-10 20:25N 34°39' E 135°15'0 0.0
2017-Nov-10 19:49N 34°39' E 135°15'0 0.0
2017-Nov-10 19:25N 34°39' E 135°15'0 0.0
2017-Nov-10 18:55N 34°39' E 135°15'0 0.0
2017-Nov-10 18:25N 34°39' E 135°15'0 0.0
2017-Nov-10 17:55N 34°39' E 135°15'0 0.0
2017-Nov-10 17:13N 34°39' E 135°15'0 0.1
2017-Nov-10 16:49N 34°39' E 135°15'0 0.0
2017-Nov-10 16:07N 34°39' E 135°15'0 0.0
2017-Nov-10 15:55N 34°39' E 135°15'0 0.0
2017-Nov-10 15:25N 34°39' E 135°15'0 0.1
2017-Nov-10 14:55N 34°39' E 135°15'0 0.1
2017-Nov-10 14:13N 34°39' E 135°15'0 0.1
2017-Nov-10 13:49N 34°39' E 135°15'0 0.1
2017-Nov-10 13:13N 34°39' E 135°15'0 0.0
2017-Nov-10 12:58N 34°39' E 135°15'0 0.8
2017-Nov-10 12:30N 34°38' E 135°16'510.2
2017-Nov-10 12:00N 34°36' E 135°10'  

Dump ship's entire track history